createdAt,value
2022-11-05T00:00:02.789Z,310.097
2022-11-05T00:05:02.896Z,4688.435
2022-11-05T00:10:02.694Z,4995.755
2022-11-05T00:15:02.723Z,4942.474
2022-11-05T00:20:02.730Z,4885.400000000001
2022-11-05T00:25:02.811Z,4884.526
2022-11-05T00:30:02.853Z,4906.857
2022-11-05T00:35:02.907Z,4911.78
2022-11-05T00:40:02.922Z,6842.5380000000005
2022-11-05T00:45:02.794Z,7059.247
2022-11-05T00:50:02.726Z,7193.997
2022-11-05T00:55:02.780Z,7739.129
2022-11-05T01:00:02.750Z,5510.41
2022-11-05T01:05:03.015Z,4906.866
2022-11-05T01:10:02.948Z,4904.826
2022-11-05T01:15:02.810Z,4887.997
2022-11-05T01:20:02.802Z,4881.579
2022-11-05T01:25:02.847Z,4886.087
2022-11-05T01:30:02.815Z,4957.631
2022-11-05T01:35:02.820Z,5014.781
2022-11-05T01:40:02.965Z,5038.881
2022-11-05T01:45:02.983Z,4991.272
2022-11-05T01:50:03.168Z,4931.9220000000005
2022-11-05T01:55:02.852Z,4936.501
2022-11-05T02:00:02.787Z,4932.753
2022-11-05T02:05:02.876Z,4930.643
2022-11-05T02:10:02.939Z,4940.924
2022-11-05T02:15:03.021Z,5006.234
2022-11-05T02:20:02.819Z,5018.907
2022-11-05T02:25:02.902Z,4985.532
2022-11-05T02:30:02.863Z,4550.059
2022-11-05T02:35:02.930Z,4004.284
2022-11-05T02:40:02.973Z,3630.388
2022-11-05T02:45:02.987Z,4107.112
2022-11-05T02:50:03.126Z,3154.352
2022-11-05T02:55:02.929Z,2303.588
2022-11-05T03:00:02.913Z,2375.055
2022-11-05T03:05:02.904Z,2856.7980000000002
2022-11-05T03:10:02.943Z,1780.3890000000001
2022-11-05T03:15:03.068Z,278.232
2022-11-05T03:20:02.892Z,173.12800000000001
2022-11-05T03:25:02.919Z,172.851
2022-11-05T03:30:02.962Z,167.002
2022-11-05T03:35:02.901Z,149.936
2022-11-05T03:40:02.874Z,149.739
2022-11-05T03:45:02.997Z,174.761
2022-11-05T03:50:04.392Z,269.9
2022-11-05T03:55:02.883Z,288.04
2022-11-05T04:00:02.914Z,292.69100000000003
2022-11-05T04:05:03.036Z,189.576
2022-11-05T04:10:02.927Z,187.162
2022-11-05T04:15:03.025Z,182.975
2022-11-05T04:20:03.127Z,175.519
2022-11-05T04:25:02.938Z,174.945
2022-11-05T04:30:02.967Z,188.392
2022-11-05T04:35:02.977Z,292.75
2022-11-05T04:40:02.918Z,273.798
2022-11-05T04:45:02.965Z,308.13
2022-11-05T04:50:03.196Z,2272.137
2022-11-05T04:55:03.111Z,2276.833
2022-11-05T05:00:02.980Z,2304.504
2022-11-05T05:05:03.009Z,2764.81
2022-11-05T05:10:02.993Z,1537.933
2022-11-05T05:15:02.994Z,199.988
2022-11-05T05:20:03.082Z,306.15500000000003
2022-11-05T05:25:03.173Z,294.665
2022-11-05T05:30:03.145Z,282.961
2022-11-05T05:35:03.023Z,186.34900000000002
2022-11-05T05:40:03.066Z,172.80100000000002
2022-11-05T05:45:02.992Z,171.91
2022-11-05T05:50:03.029Z,156.699
2022-11-05T05:55:03.074Z,147.806
2022-11-05T06:00:03.131Z,155.036
2022-11-05T06:05:03.265Z,269.011
2022-11-05T06:10:03.015Z,270.592
2022-11-05T06:15:03.111Z,293.00100000000003
2022-11-05T06:20:03.124Z,223.324
2022-11-05T06:25:03.216Z,1149.766
2022-11-05T06:30:03.323Z,2317.377
2022-11-05T06:35:03.243Z,2137.998
2022-11-05T06:40:03.241Z,2337.302
2022-11-05T06:45:03.075Z,2703.297
2022-11-05T06:50:03.098Z,1587.657
2022-11-05T06:55:03.262Z,298.57800000000003
2022-11-05T07:00:07.441Z,266.95
2022-11-05T07:05:03.201Z,204.278
2022-11-05T07:10:03.231Z,151.954
2022-11-05T07:15:03.089Z,176.224
2022-11-05T07:20:03.184Z,215.262
2022-11-05T07:25:03.098Z,214.565
2022-11-05T07:30:03.088Z,239.666
2022-11-05T07:35:03.126Z,326.981
2022-11-05T07:40:03.290Z,382.904
2022-11-05T07:45:03.289Z,384.984
2022-11-05T07:50:03.213Z,337.12600000000003
2022-11-05T07:55:03.142Z,240.292
2022-11-05T08:00:03.177Z,251.722
2022-11-05T08:05:03.157Z,2158.263
2022-11-05T08:10:03.436Z,2427.58
2022-11-05T08:15:03.258Z,2489.034
2022-11-05T08:20:03.340Z,3075.261
2022-11-05T08:25:06.739Z,488.196
2022-11-05T08:30:03.241Z,397.594
2022-11-05T08:35:03.262Z,377.338
2022-11-05T08:40:03.436Z,272.716
2022-11-05T08:45:03.163Z,1401.843
2022-11-05T08:50:03.248Z,375.63
2022-11-05T08:55:03.296Z,409.757
2022-11-05T09:00:03.334Z,416.695
2022-11-05T09:05:03.258Z,462.562
2022-11-05T09:10:03.232Z,520.745
2022-11-05T09:15:03.207Z,477.084
2022-11-05T09:20:03.269Z,446.96000000000004
2022-11-05T09:25:03.243Z,352.232
2022-11-05T09:30:03.400Z,614.415
2022-11-05T09:35:03.271Z,354.42
2022-11-05T09:40:03.217Z,358.421
2022-11-05T09:45:03.246Z,329.419
2022-11-05T09:50:03.247Z,392.596
2022-11-05T09:55:03.232Z,477.219
2022-11-05T10:00:03.304Z,1183.963
2022-11-05T10:05:08.203Z,385.144
2022-11-05T10:10:03.242Z,608.157
2022-11-05T10:15:03.219Z,1347.18
2022-11-05T10:20:03.285Z,441.387
2022-11-05T10:25:03.242Z,325.666
2022-11-05T10:30:03.299Z,1020.058
2022-11-05T10:35:03.436Z,317.068
2022-11-05T10:40:03.510Z,388.887
2022-11-05T10:45:03.279Z,379.016
2022-11-05T10:50:03.311Z,401.06100000000004
2022-11-05T10:55:03.335Z,299.819
2022-11-05T11:00:03.272Z,278.825
2022-11-05T11:05:03.307Z,274.782
2022-11-05T11:10:03.631Z,426.708
2022-11-05T11:15:03.266Z,2707.5460000000003
2022-11-05T11:20:03.352Z,2750.759
2022-11-05T11:25:03.289Z,3142.514
2022-11-05T11:30:03.683Z,2799.4990000000003
2022-11-05T11:35:03.356Z,733.2090000000001
2022-11-05T11:40:03.407Z,644.84
2022-11-05T11:45:03.495Z,601.155
2022-11-05T11:50:03.363Z,650.212
2022-11-05T11:55:03.364Z,706.149
2022-11-05T12:00:09.609Z,1861.4850000000001
2022-11-05T12:05:03.348Z,2903.881
2022-11-05T12:10:03.507Z,1837.615
2022-11-05T12:15:03.486Z,794.642
2022-11-05T12:20:03.423Z,787.691
2022-11-05T12:25:03.370Z,740.085
2022-11-05T12:30:03.371Z,644.296
2022-11-05T12:35:03.397Z,2010.422
2022-11-05T12:40:03.520Z,2743.485
2022-11-05T12:45:04.573Z,2721.236
2022-11-05T12:50:03.613Z,2087.4320000000002
2022-11-05T12:55:03.377Z,1987.541
2022-11-05T13:00:03.401Z,756.688
2022-11-05T13:40:45.755Z,667.3820000000001
2022-11-05T13:45:03.461Z,3992.652
2022-11-05T13:50:03.634Z,795.479
2022-11-05T13:55:03.615Z,2151.592
2022-11-05T14:00:03.599Z,2240.76
2022-11-05T14:05:05.164Z,2942.938
2022-11-05T14:10:03.489Z,2325.664
2022-11-05T14:15:03.462Z,736.535
2022-11-05T14:20:03.630Z,827.288
2022-11-05T14:25:04.659Z,997.511
2022-11-05T14:30:03.802Z,859.679
2022-11-05T14:35:03.526Z,745.2330000000001
2022-11-05T14:40:03.685Z,283.425
2022-11-05T14:45:03.542Z,603.895
2022-11-05T14:50:03.525Z,319.861
2022-11-05T14:55:03.738Z,380.451
2022-11-05T15:00:03.509Z,402.226
2022-11-05T15:05:03.743Z,304.618
2022-11-05T15:10:08.996Z,297.163
2022-11-05T15:15:03.540Z,291.873
2022-11-05T15:20:03.911Z,186.946
2022-11-05T15:25:03.544Z,190.375
2022-11-05T15:30:03.559Z,190.558
2022-11-05T15:35:03.547Z,1566.807
2022-11-05T15:40:03.756Z,2217.924
2022-11-05T15:45:04.728Z,2132.149
2022-11-05T15:50:03.623Z,2676.043
2022-11-05T15:55:03.765Z,2984.937
2022-11-05T16:00:03.638Z,447.298
2022-11-05T16:05:03.589Z,182.56
2022-11-05T16:10:06.135Z,171.047
2022-11-05T16:15:03.625Z,151.659
2022-11-05T16:20:03.876Z,151.855
2022-11-05T16:25:03.787Z,152.155
2022-11-05T16:30:03.592Z,177.585
2022-11-05T16:35:03.677Z,271.818
2022-11-05T16:40:03.871Z,264.511
2022-11-05T16:45:03.668Z,260.365
2022-11-05T16:50:03.801Z,190.594
2022-11-05T16:55:04.003Z,171.469
2022-11-05T17:00:04.777Z,177.28
2022-11-05T17:05:03.794Z,177.697
2022-11-05T17:10:03.580Z,174.98
2022-11-05T17:15:03.718Z,177.638
2022-11-05T17:20:03.621Z,243.758
2022-11-05T17:25:03.990Z,304.028
2022-11-05T17:30:04.335Z,291.486
2022-11-05T17:35:03.714Z,244.30700000000002
2022-11-05T17:40:03.809Z,1614.309
2022-11-05T17:45:03.836Z,2232.957
2022-11-05T17:50:03.661Z,2273.41
2022-11-05T17:55:03.665Z,2759.4210000000003
2022-11-05T18:00:03.660Z,1296.117
2022-11-05T18:05:03.667Z,215.417
2022-11-05T18:10:03.689Z,287.454
2022-11-05T18:15:04.062Z,268.384
2022-11-05T18:20:03.881Z,250.951
2022-11-05T18:25:03.876Z,155.746
2022-11-05T18:30:03.958Z,152.995
2022-11-05T18:35:03.669Z,153.15800000000002
2022-11-05T18:40:03.762Z,153.406
2022-11-05T18:45:03.787Z,153.863
2022-11-05T18:50:03.705Z,186.246
2022-11-05T18:55:03.903Z,291.438
2022-11-05T19:00:03.862Z,290.244
2022-11-05T19:05:29.297Z,277.099
2022-11-05T19:10:03.855Z,176.00300000000001
2022-11-05T19:15:04.349Z,166.548
2022-11-05T19:20:01.877Z,152.66
2022-11-05T19:25:01.425Z,152.80100000000002
2022-11-05T19:30:01.417Z,152.942
2022-11-05T19:35:01.507Z,190.166
2022-11-05T19:40:01.596Z,308.19
2022-11-05T19:45:16.996Z,302.938
2022-11-05T19:50:01.479Z,295.135
2022-11-05T19:55:01.527Z,183.195
2022-11-05T20:00:01.476Z,180.005
2022-11-05T20:05:01.470Z,1323.061
2022-11-05T20:10:01.507Z,2242.759
2022-11-05T20:15:01.489Z,2241.477
2022-11-05T20:20:01.508Z,2654.92
2022-11-05T20:25:01.748Z,1803.055
2022-11-05T20:30:03.443Z,268.147
2022-11-05T20:35:01.500Z,264.629
2022-11-05T20:40:01.600Z,162.726
2022-11-05T20:45:01.548Z,288.702
2022-11-05T20:50:01.470Z,1049.173
2022-11-05T20:55:01.515Z,700.0600000000001
2022-11-05T21:00:01.538Z,2137.683
2022-11-05T21:05:01.746Z,1644.155
2022-11-05T21:10:02.668Z,1469.829
2022-11-05T21:15:01.704Z,1359.69
2022-11-05T21:20:01.555Z,1419.355
2022-11-05T21:25:01.609Z,1339.546
2022-11-05T21:30:01.572Z,1743.087
2022-11-05T21:35:01.562Z,1358.1960000000001
2022-11-05T21:40:01.574Z,1324.128
2022-11-05T21:45:02.395Z,1351.044
2022-11-05T21:50:01.745Z,1047.944
2022-11-05T21:55:01.731Z,1030.391
2022-11-05T22:00:01.954Z,1436.692
2022-11-05T22:05:01.559Z,1427.285
2022-11-05T22:10:01.665Z,932.3720000000001
2022-11-05T22:15:02.818Z,1176.483
2022-11-05T22:20:01.651Z,1245.945
2022-11-05T22:25:01.608Z,349.874
2022-11-05T22:30:01.788Z,523.231
2022-11-05T22:35:01.703Z,1374.463
2022-11-05T22:40:01.602Z,2391.341
2022-11-05T22:45:01.761Z,2698.327
2022-11-05T22:50:01.595Z,3198.606
2022-11-05T22:55:01.641Z,1622.804
2022-11-05T23:00:01.635Z,323.171
2022-11-05T23:05:01.631Z,614.077
2022-11-05T23:10:01.823Z,214.65800000000002
2022-11-05T23:15:01.964Z,205.22
2022-11-05T23:20:01.642Z,647.27
2022-11-05T23:25:01.644Z,458.97200000000004
2022-11-05T23:30:01.656Z,309.361
2022-11-05T23:35:01.692Z,647.42
2022-11-05T23:40:01.644Z,477.63100000000003
2022-11-05T23:45:01.958Z,176.612
2022-11-05T23:50:01.798Z,314.101
2022-11-05T23:55:01.729Z,549.306
